Time;durP1;ratioP1;P1;durP2;ratioP2;P2;SDS_P1;SDS_P2;PMS_P1;PMS_P2;Temp;Humidity;BMP_temperature;BMP_pressure;BME280_temperature;BME280_humidity;BME280_pressure;Samples;Min_cycle;Max_cycle;Signal;HPM_P1;HPM_P2
2022/05/17 00:01:11;;;;;;;4.70;4.30;;;16.90;81.40;;;17.29;54.84;95204.66;5067877;28;20475;-56
2022/05/17 00:03:38;;;;;;;11.73;4.10;;;16.90;81.40;;;17.27;55.50;95212.81;5065568;28;20490;-56
2022/05/17 00:06:07;;;;;;;8.10;4.50;;;16.90;81.60;;;17.26;55.09;95210.31;5069893;28;20479;-55
2022/05/17 00:08:34;;;;;;;9.10;4.03;;;16.90;81.50;;;17.20;55.21;95210.03;5066333;28;21205;-55
2022/05/17 00:11:01;;;;;;;6.47;3.90;;;16.90;81.60;;;17.18;54.86;95211.19;5068345;28;21003;-54
2022/05/17 00:13:29;;;;;;;6.40;4.23;;;16.80;81.20;;;17.12;55.15;95212.72;5066015;28;20542;-54
2022/05/17 00:15:56;;;;;;;4.07;3.70;;;16.80;81.40;;;17.08;54.77;95211.41;5066819;28;20904;-56
2022/05/17 00:18:23;;;;;;;4.77;3.70;;;16.80;81.10;;;17.04;55.15;95210.09;5067718;28;20466;-54
2022/05/17 00:20:51;;;;;;;4.47;4.17;;;16.70;81.30;;;17.01;55.35;95208.63;5065675;28;20505;-57
2022/05/17 00:23:20;;;;;;;6.33;4.47;;;16.70;81.90;;;16.98;55.17;95203.63;5070579;28;20918;-54
2022/05/17 00:25:48;;;;;;;4.57;4.17;;;16.70;81.80;;;16.95;55.48;95201.31;5066148;28;20558;-55
2022/05/17 00:28:15;;;;;;;6.60;4.70;;;16.60;82.10;;;16.91;55.73;95205.31;5067917;28;20486;-56
2022/05/17 00:30:43;;;;;;;6.73;3.93;;;16.60;82.50;;;16.90;55.72;95208.13;5067998;28;20551;-54
2022/05/17 00:33:10;;;;;;;7.63;4.03;;;16.60;82.60;;;16.85;55.54;95205.97;5066155;28;20451;-55
2022/05/17 00:35:38;;;;;;;4.70;4.30;;;16.50;82.50;;;16.81;55.59;95202.81;5071159;28;20486;-56
2022/05/17 00:38:05;;;;;;;8.63;4.60;;;16.50;82.50;;;16.79;55.67;95206.63;5068825;28;20463;-56
2022/05/17 00:40:34;;;;;;;5.47;4.17;;;16.50;82.50;;;16.75;55.88;95208.81;5067569;28;20536;-55
2022/05/17 00:43:01;;;;;;;9.83;4.20;;;16.50;82.60;;;16.73;55.80;95205.50;5068085;28;20495;-55
2022/05/17 00:45:29;;;;;;;5.03;4.17;;;16.40;83.30;;;16.72;56.05;95203.03;5067402;28;20483;-55
2022/05/17 00:48:04;;;;;;;7.90;4.17;;;16.40;83.40;;;16.70;56.16;95197.03;5069901;28;21012;-56
2022/05/17 00:50:33;;;;;;;4.93;3.70;;;16.40;83.40;;;16.66;56.06;95191.25;5070684;28;20536;-55
2022/05/17 00:53:02;;;;;;;14.00;3.87;;;16.40;83.30;;;16.63;56.19;95199.53;5065239;28;20451;-55
2022/05/17 00:55:34;;;;;;;4.73;4.33;;;16.30;83.40;;;16.58;56.25;95189.44;5065566;28;20508;-55
2022/05/17 00:58:03;;;;;;;9.07;3.90;;;16.30;83.70;;;16.54;56.12;95195.25;5064156;28;20983;-55
2022/05/17 01:00:37;;;;;;;10.17;3.77;;;16.20;83.60;;;16.49;56.15;95201.06;5065846;28;21026;-55
2022/05/17 01:03:07;;;;;;;3.87;3.57;;;16.20;83.60;;;16.44;56.30;95190.94;5065703;28;21014;-54
2022/05/17 01:05:41;;;;;;;5.40;3.60;;;16.20;84.00;;;16.42;56.21;95202.72;5067317;28;20485;-57
2022/05/17 01:08:10;;;;;;;8.40;4.33;;;16.10;83.80;;;16.38;56.19;95202.22;5066413;28;20459;-54
2022/05/17 01:10:38;;;;;;;6.73;3.23;;;16.10;83.80;;;16.34;56.19;95187.63;5065546;28;20555;-56
2022/05/17 01:16:06;;;;;;;5.13;3.43;;;16.00;83.90;;;16.25;56.36;95185.97;5043039;28;20626;-55
2022/05/17 01:18:34;;;;;;;5.60;3.47;;;16.00;84.10;;;16.21;56.59;95193.44;5038893;28;20465;-54
2022/05/17 01:21:03;;;;;;;9.43;3.60;;;15.90;84.70;;;16.18;56.60;95190.31;5052150;28;20540;-55
2022/05/17 01:23:31;;;;;;;4.70;4.20;;;15.90;84.60;;;16.15;56.42;95190.66;5065899;28;20581;-57
2022/05/17 01:25:58;;;;;;;4.10;3.70;;;15.90;84.60;;;16.10;56.61;95193.78;5062227;28;20574;-56
2022/05/17 01:28:27;;;;;;;3.37;3.17;;;15.80;84.50;;;16.06;56.50;95182.66;5067081;28;20542;-53
2022/05/17 01:31:03;;;;;;;9.00;3.50;;;15.80;84.60;;;16.03;56.61;95187.47;5063795;28;21042;-54
2022/05/17 01:33:31;;;;;;;2.93;2.73;;;15.70;84.70;;;16.00;56.75;95188.63;5066848;28;20674;-58
2022/05/17 01:35:58;;;;;;;4.43;3.73;;;15.70;85.00;;;15.95;56.67;95175.03;5064073;28;20528;-56
2022/05/17 01:38:27;;;;;;;7.20;3.77;;;15.70;84.80;;;15.88;56.88;95180.19;5066153;28;20481;-54
2022/05/17 01:40:54;;;;;;;4.10;3.00;;;15.60;85.10;;;15.82;56.72;95191.47;5065845;28;21033;-54
2022/05/17 01:43:22;;;;;;;4.20;3.80;;;15.50;85.10;;;15.80;57.23;95188.16;5064767;28;20487;-56
2022/05/17 01:45:49;;;;;;;4.00;3.70;;;15.50;85.60;;;15.79;57.26;95183.00;5065715;28;20478;-56
2022/05/17 01:48:16;;;;;;;16.83;3.60;;;15.50;86.00;;;15.75;57.45;95178.00;5064859;28;21047;-55
2022/05/17 01:50:44;;;;;;;6.17;3.73;;;15.50;86.30;;;15.70;57.48;95188.25;5064901;28;20467;-55
2022/05/17 01:53:11;;;;;;;9.33;3.50;;;15.40;86.20;;;15.66;57.46;95186.09;5065874;28;20455;-55
2022/05/17 01:55:40;;;;;;;4.77;4.13;;;15.40;86.20;;;15.63;57.51;95181.97;5066006;28;20846;-56
2022/05/17 01:58:07;;;;;;;9.20;3.97;;;15.30;86.20;;;15.60;57.38;95185.75;5065914;28;20512;-56
2022/05/17 02:00:35;;;;;;;8.33;3.10;;;15.30;86.60;;;15.59;57.75;95191.22;5065076;28;20469;-54
2022/05/17 02:03:02;;;;;;;3.70;3.40;;;15.30;86.80;;;15.59;57.73;95175.31;5064662;28;20513;-55
2022/05/17 02:05:30;;;;;;;6.57;4.10;;;15.30;87.00;;;15.59;57.62;95177.97;5064627;28;21044;-55
2022/05/17 02:07:57;;;;;;;6.77;2.97;;;15.30;86.80;;;15.60;57.56;95179.63;5064124;28;21003;-55
2022/05/17 02:10:25;;;;;;;4.20;3.57;;;15.30;86.80;;;15.60;57.34;95177.00;5064919;28;20465;-54
2022/05/17 02:12:55;;;;;;;5.73;3.10;;;15.30;86.60;;;15.57;57.20;95183.44;5063870;28;20490;-54
2022/05/17 02:15:22;;;;;;;4.83;2.80;;;15.30;86.20;;;15.52;57.37;95192.84;5064169;28;20501;-55
2022/05/17 02:17:49;;;;;;;4.13;3.73;;;15.30;86.50;;;15.49;57.54;95191.38;5064665;28;20463;-56
2022/05/17 02:20:16;;;;;;;6.50;3.73;;;15.20;86.90;;;15.51;57.76;95196.53;5064688;28;20483;-56
2022/05/17 02:22:44;;;;;;;5.03;4.37;;;15.20;87.20;;;15.50;58.00;95192.19;5064474;28;20567;-57
2022/05/17 02:25:11;;;;;;;15.67;4.63;;;15.20;87.50;;;15.49;57.83;95190.53;5063535;28;20483;-56
2022/05/17 02:27:39;;;;;;;5.87;3.87;;;15.20;87.40;;;15.47;57.90;95193.34;5064511;28;20459;-55
2022/05/17 02:30:10;;;;;;;4.40;3.30;;;15.20;87.40;;;15.46;57.91;95190.84;5065935;28;21119;-56
2022/05/17 02:32:37;;;;;;;6.77;4.57;;;15.20;87.40;;;15.44;58.18;95191.00;5065304;28;20455;-56
2022/05/17 02:35:06;;;;;;;3.73;3.53;;;15.20;87.50;;;15.45;58.12;95189.22;5062179;28;20466;-55
2022/05/17 02:37:33;;;;;;;6.10;3.70;;;15.10;87.70;;;15.42;58.24;95191.19;5064095;28;20832;-55
2022/05/17 02:40:00;;;;;;;4.37;3.73;;;15.10;88.10;;;15.41;58.62;95183.38;5069251;28;20452;-56
2022/05/17 02:42:28;;;;;;;5.67;3.93;;;15.10;88.60;;;15.41;58.58;95188.69;5064138;28;20463;-55
2022/05/17 02:44:55;;;;;;;8.70;3.97;;;15.10;89.00;;;15.39;58.81;95186.19;5068330;28;20544;-55
2022/05/17 02:47:25;;;;;;;19.00;3.93;;;15.10;89.10;;;15.39;59.05;95190.69;5069060;28;20585;-55
2022/05/17 02:49:52;;;;;;;11.40;4.43;;;15.10;89.90;;;15.38;59.01;95195.16;5065270;28;20963;-56
2022/05/17 02:52:19;;;;;;;7.90;4.20;;;15.10;89.50;;;15.38;58.77;95194.31;5068703;28;20451;-55
2022/05/17 02:54:46;;;;;;;7.17;4.47;;;15.10;89.30;;;15.37;58.79;95192.66;5069345;28;20463;-55
2022/05/17 02:57:14;;;;;;;6.27;3.93;;;15.10;89.60;;;15.38;59.18;95195.16;5066771;28;20474;-54
2022/05/17 02:59:41;;;;;;;6.60;3.80;;;15.10;90.10;;;15.36;59.24;95191.81;5067283;28;20450;-56
2022/05/17 03:02:08;;;;;;;4.50;3.87;;;15.10;90.10;;;15.35;58.99;95192.84;5066442;28;20479;-55
2022/05/17 03:04:37;;;;;;;6.73;4.87;;;15.10;90.00;;;15.33;58.89;95192.16;5065673;28;20493;-55
2022/05/17 03:07:05;;;;;;;6.57;3.87;;;15.10;89.90;;;15.30;59.22;95186.34;5067795;28;20817;-56
2022/05/17 03:09:32;;;;;;;5.70;4.57;;;15.00;90.00;;;15.27;59.22;95190.13;5065244;28;20837;-56
2022/05/17 03:12:02;;;;;;;6.80;4.00;;;15.00;90.10;;;15.23;59.47;95188.81;5068899;28;20539;-55
2022/05/17 03:14:30;;;;;;;8.50;4.50;;;15.00;90.20;;;15.23;59.44;95186.16;5066800;28;20462;-54
2022/05/17 03:16:57;;;;;;;12.07;4.07;;;15.00;90.30;;;15.21;59.56;95191.63;5069164;28;20469;-55
2022/05/17 03:19:24;;;;;;;11.40;4.60;;;15.00;90.10;;;15.19;59.69;95192.78;5064378;28;20463;-54
2022/05/17 03:21:53;;;;;;;6.50;4.70;;;14.90;90.30;;;15.16;59.65;95193.09;5066883;28;21017;-55
2022/05/17 03:24:20;;;;;;;9.77;4.77;;;14.90;90.30;;;15.16;59.76;95196.56;5068378;28;20845;-54
2022/05/17 03:26:47;;;;;;;7.67;5.00;;;14.90;90.60;;;15.17;59.51;95202.72;5067050;28;20478;-55
2022/05/17 03:29:15;;;;;;;12.33;4.60;;;14.90;90.50;;;15.15;59.93;95200.22;5065699;28;20534;-55
2022/05/17 03:31:42;;;;;;;7.00;4.50;;;14.90;90.70;;;15.16;59.92;95204.50;5067056;28;21220;-55
2022/05/17 03:34:10;;;;;;;6.33;5.00;;;14.90;90.60;;;15.18;59.84;95199.06;5067870;28;20466;-56
2022/05/17 03:36:37;;;;;;;6.13;4.60;;;14.90;90.80;;;15.21;60.38;95198.72;5069219;28;20478;-55
2022/05/17 03:39:06;;;;;;;6.80;3.90;;;14.90;91.10;;;15.21;60.40;95204.88;5068999;28;20490;-55
2022/05/17 03:41:33;;;;;;;8.10;5.03;;;14.90;91.10;;;15.24;60.34;95206.34;5065441;28;20471;-54
2022/05/17 03:44:01;;;;;;;5.50;4.13;;;15.00;91.10;;;15.26;60.19;95201.75;5067276;28;21002;-57
2022/05/17 03:46:28;;;;;;;17.73;4.60;;;15.00;91.20;;;15.29;60.33;95206.72;5066123;28;20914;-57
2022/05/17 03:48:55;;;;;;;18.07;5.00;;;15.00;91.20;;;15.30;60.33;95208.38;5068559;28;20463;-56
2022/05/17 03:51:23;;;;;;;25.83;5.73;;;15.00;91.20;;;15.31;60.55;95206.56;5064866;28;20482;-55
2022/05/17 03:53:51;;;;;;;11.83;5.47;;;15.00;91.20;;;15.33;60.21;95207.22;5064421;28;20558;-56
2022/05/17 03:56:20;;;;;;;14.63;5.60;;;15.10;91.20;;;15.36;60.14;95214.84;5064296;28;20470;-54
2022/05/17 03:58:47;;;;;;;7.07;5.00;;;15.10;91.10;;;15.39;60.40;95207.41;5065698;28;21057;-54
2022/05/17 04:01:15;;;;;;;23.43;5.87;;;15.10;91.30;;;15.43;59.88;95205.28;5065795;28;20469;-54
2022/05/17 04:03:43;;;;;;;10.67;6.03;;;15.10;91.10;;;15.48;60.14;95213.56;5064703;28;20494;-54
2022/05/17 04:06:10;;;;;;;11.50;6.93;;;15.20;91.30;;;15.50;60.15;95206.28;5065333;28;20837;-56
2022/05/17 04:08:37;;;;;;;21.93;8.10;;;15.20;91.30;;;15.52;59.68;95198.16;5067357;28;20458;-55
2022/05/17 04:11:05;;;;;;;26.80;6.70;;;15.20;91.00;;;15.53;59.86;95197.19;5066898;28;20479;-56
2022/05/17 04:13:35;;;;;;;20.27;5.80;;;15.30;90.90;;;15.53;59.69;95199.81;5066372;28;20820;-55
2022/05/17 04:16:02;;;;;;;20.90;6.70;;;15.30;90.70;;;15.53;59.48;95203.31;5067143;28;20467;-57
2022/05/17 04:18:30;;;;;;;11.20;6.73;;;15.20;91.10;;;15.56;60.13;95199.50;5064645;28;20471;-57
2022/05/17 04:21:00;;;;;;;23.83;6.50;;;15.30;91.00;;;15.61;59.63;95207.78;5066436;28;20474;-56
2022/05/17 04:23:27;;;;;;;21.97;6.03;;;15.30;90.90;;;15.68;59.76;95211.47;5065552;28;20494;-58
2022/05/17 04:25:55;;;;;;;12.70;7.70;;;15.40;91.10;;;15.79;59.46;95226.28;5067274;28;20552;-53
2022/05/17 04:28:22;;;;;;;15.27;5.57;;;15.50;90.90;;;15.88;59.20;95233.25;5064364;28;20517;-56
2022/05/17 04:30:51;;;;;;;13.67;4.93;;;15.60;90.60;;;15.94;59.03;95227.28;5064797;28;20875;-54
2022/05/17 04:33:18;;;;;;;12.60;6.17;;;15.60;90.30;;;16.00;58.81;95224.97;5063885;28;20459;-56
2022/05/17 04:35:45;;;;;;;9.70;5.80;;;15.70;90.30;;;16.04;58.49;95227.13;5063371;28;20544;-57
2022/05/17 04:38:13;;;;;;;16.83;5.73;;;15.70;90.00;;;16.06;58.48;95225.13;5063795;28;20458;-56
2022/05/17 04:40:41;;;;;;;21.10;6.17;;;15.80;90.00;;;16.08;58.45;95220.50;5066272;28;20487;-54
2022/05/17 04:43:09;;;;;;;16.40;6.07;;;15.80;90.00;;;16.10;58.25;95226.47;5065455;28;20911;-56
2022/05/17 04:45:36;;;;;;;38.33;8.37;;;15.80;90.20;;;16.13;58.37;95231.44;5064369;28;20975;-56
2022/05/17 04:48:06;;;;;;;22.37;7.00;;;15.80;89.70;;;16.15;58.40;95228.63;5060670;28;20455;-54
2022/05/17 04:50:34;;;;;;;16.93;7.17;;;15.80;89.70;;;16.19;58.36;95229.97;5063367;28;20474;-56
2022/05/17 04:53:01;;;;;;;20.93;6.73;;;15.90;89.70;;;16.22;58.05;95223.47;5063478;28;20438;-55
2022/05/17 04:55:28;;;;;;;38.37;7.97;;;15.90;89.20;;;16.26;58.00;95230.13;5066615;28;20494;-55
2022/05/17 04:57:56;;;;;;;22.77;7.90;;;16.00;90.00;;;16.26;57.94;95225.63;5064195;28;20541;-56
2022/05/17 05:00:25;;;;;;;20.00;7.73;;;16.00;88.70;;;16.28;57.80;95222.81;5064437;28;20481;-55
2022/05/17 05:02:52;;;;;;;14.30;6.80;;;16.00;88.60;;;16.33;57.73;95222.31;5066280;28;20462;-56
2022/05/17 05:05:22;;;;;;;11.03;6.30;;;16.00;88.20;;;16.36;57.77;95224.63;5062845;28;20495;-55
2022/05/17 05:07:49;;;;;;;22.83;7.00;;;16.00;88.20;;;16.38;57.50;95226.13;5060219;28;20486;-54
2022/05/17 05:10:16;;;;;;;15.80;6.80;;;16.10;88.30;;;16.40;57.51;95221.47;5060627;28;20471;-55
2022/05/17 05:12:44;;;;;;;22.57;8.17;;;16.10;88.30;;;16.47;57.46;95232.28;5061770;28;20534;-56
2022/05/17 05:15:12;;;;;;;9.60;7.40;;;16.20;88.40;;;16.57;57.22;95232.09;5065583;28;21084;-55
2022/05/17 05:17:39;;;;;;;20.53;8.40;;;16.20;88.10;;;16.72;57.63;95230.41;5061926;28;20458;-56
2022/05/17 05:20:09;;;;;;;14.20;7.80;;;16.40;88.60;;;16.91;57.05;95229.22;5065327;28;20462;-56
2022/05/17 05:22:38;;;;;;;26.57;7.57;;;16.50;88.10;;;17.13;56.79;95234.81;5062085;28;20505;-56
2022/05/17 05:25:06;;;;;;;17.50;6.70;;;16.70;87.70;;;17.38;56.58;95224.91;5064866;28;20584;-53
2022/05/17 05:27:34;;;;;;;19.70;7.70;;;16.90;87.20;;;17.65;56.27;95223.63;5059459;28;20992;-56
2022/05/17 05:30:01;;;;;;;9.83;6.23;;;17.10;86.50;;;17.90;54.97;95226.97;5062534;28;20447;-56
2022/05/17 05:32:29;;;;;;;14.30;6.70;;;17.40;84.20;;;18.14;53.83;95234.97;5060609;28;20998;-55
2022/05/17 05:34:56;;;;;;;9.73;7.40;;;17.70;83.60;;;18.36;53.33;95228.00;5061618;28;20486;-55
2022/05/17 05:37:24;;;;;;;8.90;6.83;;;17.90;82.00;;;18.59;52.58;95227.94;5065341;28;20451;-56
2022/05/17 05:39:54;;;;;;;9.90;6.80;;;18.10;80.90;;;18.80;53.06;95229.91;5063184;28;20829;-56
2022/05/17 05:42:21;;;;;;;13.57;7.23;;;18.30;80.90;;;19.05;52.41;95232.34;5064577;28;20465;-56
2022/05/17 05:44:48;;;;;;;11.93;5.90;;;18.50;80.60;;;19.28;52.25;95227.75;5060837;28;21015;-55
2022/05/17 05:47:15;;;;;;;21.73;6.27;;;18.80;80.00;;;19.56;51.67;95229.72;5063798;28;20767;-55
2022/05/17 05:49:44;;;;;;;8.10;5.13;;;19.00;78.70;;;19.82;51.10;95229.25;5064820;28;20504;-55
2022/05/17 05:52:11;;;;;;;19.67;4.70;;;19.30;76.90;;;20.10;50.70;95225.84;5065104;28;20485;-55
2022/05/17 05:54:38;;;;;;;8.93;4.60;;;19.50;76.00;;;20.37;49.51;95223.41;5065063;28;20854;-55
2022/05/17 05:57:08;;;;;;;16.27;5.53;;;19.80;74.90;;;20.62;49.22;95218.50;5065188;28;20494;-56
2022/05/17 05:59:35;;;;;;;7.57;5.10;;;20.10;74.40;;;20.87;48.68;95223.44;5065798;28;20447;-56
2022/05/17 06:02:02;;;;;;;9.90;5.47;;;20.30;73.50;;;21.10;48.52;95224.00;5064501;28;20494;-55
2022/05/17 06:04:30;;;;;;;13.03;5.57;;;20.60;72.20;;;21.35;48.06;95231.56;5064844;28;20482;-55
2022/05/17 06:06:57;;;;;;;9.20;5.40;;;20.80;71.20;;;21.58;47.75;95222.41;5065374;28;20479;-55
2022/05/17 06:09:25;;;;;;;11.60;4.83;;;21.00;70.20;;;21.79;47.23;95216.94;5065916;28;20459;-54
2022/05/17 06:11:52;;;;;;;13.47;6.40;;;21.20;69.10;;;22.02;46.55;95218.44;5065134;28;20661;-57
2022/05/17 06:14:21;;;;;;;15.83;5.60;;;21.40;68.10;;;22.27;46.44;95220.56;5063781;28;20463;-56
2022/05/17 06:16:48;;;;;;;14.23;5.57;;;21.70;67.70;;;22.51;46.06;95225.34;5064947;28;20529;-54
2022/05/17 06:19:16;;;;;;;16.63;5.40;;;21.90;66.60;;;22.73;44.92;95217.09;5064702;28;20451;-56
2022/05/17 06:21:43;;;;;;;9.37;4.70;;;22.00;64.60;;;22.93;45.01;95222.44;5065317;28;20553;-53
2022/05/17 06:24:10;;;;;;;6.80;4.40;;;22.30;63.90;;;23.11;44.85;95219.13;5065288;28;21006;-54
2022/05/17 06:26:38;;;;;;;9.67;4.50;;;22.50;62.60;;;23.33;44.54;95219.72;5064704;28;20475;-54
2022/05/17 06:29:06;;;;;;;19.27;4.20;;;22.70;62.80;;;23.54;43.60;95226.66;5063913;28;20454;-54
2022/05/17 06:31:34;;;;;;;5.43;3.50;;;22.90;61.80;;;23.77;43.05;95217.28;5064457;28;20999;-55
2022/05/17 06:34:01;;;;;;;10.17;4.07;;;23.10;60.40;;;23.98;43.39;95219.69;5064843;28;20458;-56
2022/05/17 06:36:29;;;;;;;7.00;3.97;;;23.40;59.90;;;24.16;42.76;95218.94;5065168;28;20931;-55
2022/05/17 06:38:56;;;;;;;11.43;4.80;;;23.60;59.40;;;24.37;42.94;95224.19;5062298;28;20860;-54
2022/05/17 06:41:24;;;;;;;5.60;4.40;;;23.70;58.70;;;24.55;41.92;95221.59;5064677;28;20490;-56
2022/05/17 06:43:51;;;;;;;7.63;4.33;;;23.90;57.80;;;24.72;42.17;95210.31;5062866;28;20490;-55
2022/05/17 06:46:18;;;;;;;4.10;3.33;;;24.10;57.90;;;24.88;41.29;95204.41;5065042;28;20535;-57
2022/05/17 06:48:47;;;;;;;14.07;3.70;;;24.30;57.20;;;25.06;41.68;95204.41;5064986;28;20920;-56
2022/05/17 06:51:14;;;;;;;9.30;4.37;;;24.40;56.70;;;25.26;40.77;95202.56;5064611;28;20474;-55
2022/05/17 06:53:42;;;;;;;5.60;3.80;;;24.60;56.10;;;25.39;40.97;95205.97;5065087;28;20473;-56
2022/05/17 06:56:10;;;;;;;19.70;4.07;;;24.80;55.60;;;25.54;40.31;95210.97;5064147;28;20479;-56
2022/05/17 06:58:38;;;;;;;6.93;4.07;;;24.90;55.30;;;25.69;40.06;95204.38;5062975;28;21288;-56
2022/05/17 07:01:05;;;;;;;16.40;3.77;;;25.10;54.90;;;25.84;40.00;95210.19;5064349;28;20996;-56
2022/05/17 07:03:33;;;;;;;9.20;4.07;;;25.20;54.60;;;25.99;39.98;95209.81;5064206;28;20955;-55
2022/05/17 07:06:02;;;;;;;11.37;4.37;;;25.30;54.20;;;26.15;39.77;95199.44;5064471;28;21075;-54
2022/05/17 07:08:29;;;;;;;24.13;4.37;;;25.50;53.70;;;26.33;38.87;95204.78;5064316;28;20537;-56
2022/05/17 07:13:41;;;;;;;8.47;4.20;;;25.80;52.40;;;26.63;38.45;95193.09;5063977;28;20430;-55
2022/05/17 07:16:09;;;;;;;7.13;3.73;;;26.00;52.40;;;26.61;37.96;95201.41;5064534;28;20486;-55
2022/05/17 07:18:37;;;;;;;4.63;4.00;;;26.00;51.40;;;26.64;38.28;95189.34;5064036;28;20454;-54
2022/05/17 07:21:05;;;;;;;11.30;5.20;;;26.00;51.80;;;26.77;38.32;95189.16;5064370;28;20462;-58
2022/05/17 07:23:33;;;;;;;12.40;3.60;;;26.10;51.50;;;26.94;38.13;95196.56;5062899;28;20446;-57
2022/05/17 07:26:00;;;;;;;5.90;4.20;;;26.30;51.10;;;27.12;37.59;95193.72;5065209;28;20926;-55
2022/05/17 07:28:28;;;;;;;7.23;3.57;;;26.50;50.80;;;27.31;37.22;95189.06;5067513;28;20557;-55
2022/05/17 07:30:55;;;;;;;18.90;4.30;;;26.60;50.10;;;27.49;37.02;95188.06;5068387;28;20492;-57
2022/05/17 07:33:22;;;;;;;11.20;4.33;;;26.80;49.60;;;27.67;37.11;95188.97;5067048;28;20869;-55
2022/05/17 07:35:50;;;;;;;8.07;3.33;;;27.00;49.80;;;27.86;37.05;95182.34;5067336;28;20539;-57
2022/05/17 07:38:19;;;;;;;12.00;4.13;;;27.20;49.80;;;28.05;36.99;95182.16;5066751;28;20854;-55
2022/05/17 07:40:46;;;;;;;7.27;3.70;;;27.30;49.10;;;28.21;36.68;95181.41;5068149;28;20470;-54
2022/05/17 07:43:13;;;;;;;14.40;4.43;;;27.50;49.20;;;28.40;36.63;95182.00;5068028;28;20450;-56
2022/05/17 07:45:41;;;;;;;13.33;3.93;;;27.70;49.10;;;28.60;36.31;95176.13;5067558;28;20563;-55
2022/05/17 07:48:09;;;;;;;3.80;3.30;;;27.90;48.70;;;28.83;36.41;95176.19;5068266;28;20450;-55
2022/05/17 07:50:36;;;;;;;13.73;3.77;;;28.10;48.60;;;29.03;36.10;95178.41;5067600;28;20470;-55
2022/05/17 07:53:07;;;;;;;9.07;4.60;;;28.30;47.90;;;29.18;35.54;95170.50;5068411;28;20450;-55
2022/05/17 07:55:37;;;;;;;7.37;4.30;;;28.50;47.30;;;29.36;34.73;95164.00;5065589;28;20466;-55
2022/05/17 07:58:04;;;;;;;8.83;4.17;;;28.60;46.90;;;29.55;34.32;95161.78;5066500;28;20472;-63
2022/05/17 08:00:32;;;;;;;23.00;3.70;;;28.80;46.30;;;29.77;34.37;95155.53;5067352;28;20462;-56
2022/05/17 08:02:59;;;;;;;10.33;3.97;;;29.10;46.50;;;29.99;34.74;95153.66;5063490;28;20534;-56
2022/05/17 08:05:27;;;;;;;16.47;4.07;;;29.30;46.20;;;30.21;34.29;95153.59;5067570;28;20489;-56
2022/05/17 08:07:54;;;;;;;11.70;4.13;;;29.50;45.70;;;30.46;34.26;95159.53;5067308;28;20970;-57
2022/05/17 08:10:22;;;;;;;5.23;3.60;;;29.70;45.20;;;30.68;33.07;95163.00;5067760;28;20478;-55
2022/05/17 08:12:51;;;;;;;9.47;4.53;;;29.90;45.10;;;30.92;33.89;95155.28;5067513;28;20531;-54
2022/05/17 08:15:19;;;;;;;9.80;4.50;;;30.20;44.90;;;31.16;33.49;95141.34;5067623;28;20470;-57
2022/05/17 08:17:46;;;;;;;8.30;4.57;;;30.50;44.20;;;31.35;33.09;95144.41;5067254;28;20805;-55
2022/05/17 08:20:13;;;;;;;7.07;4.20;;;30.70;44.10;;;31.58;32.22;95143.19;5067412;28;20487;-56
2022/05/17 08:22:40;;;;;;;8.20;4.03;;;30.80;43.40;;;31.84;32.67;95146.00;5067170;28;20453;-55
2022/05/17 08:27:55;;;;;;;20.60;4.63;;;31.30;42.90;;;32.27;31.91;95137.69;5067637;28;20186;-55
2022/05/17 08:30:24;;;;;;;12.73;4.17;;;31.60;42.30;;;32.48;31.35;95136.59;5067101;28;20311;-55
2022/05/17 08:35:40;;;;;;;5.93;3.97;;;32.00;41.50;;;32.91;30.76;95141.00;5064875;28;20312;-54
2022/05/17 08:38:07;;;;;;;13.23;3.97;;;32.20;40.90;;;33.08;30.55;95136.03;5059451;28;20567;-54
2022/05/17 08:40:37;;;;;;;8.90;3.47;;;32.30;40.50;;;33.17;30.34;95145.28;5065185;28;20220;-54
2022/05/17 08:43:15;;;;;;;8.52;3.47;;;32.50;40.50;;;33.31;30.17;95128.38;5067037;28;20208;-55
2022/05/17 08:45:51;;;;;;;8.43;3.10;;;32.60;40.10;;;33.47;29.55;95132.69;5066818;28;20267;-55
2022/05/17 08:48:18;;;;;;;9.13;3.08;;;32.80;39.50;;;33.66;29.70;95134.78;5065926;28;20253;-55
2022/05/17 08:50:47;;;;;;;7.95;3.10;;;32.90;39.00;;;33.84;28.50;95126.00;5065766;28;20282;-56
2022/05/17 08:53:19;;;;;;;6.60;2.83;;;33.10;37.30;;;33.95;28.50;95129.50;5065598;28;20291;-55
2022/05/17 08:55:47;;;;;;;5.43;2.70;;;33.20;37.80;;;34.13;28.16;95125.31;5066841;28;20224;-55
2022/05/17 08:58:20;;;;;;;5.97;3.00;;;33.40;37.40;;;34.34;27.69;95122.44;5065984;28;20192;-56
2022/05/17 09:00:50;;;;;;;11.60;4.13;;;33.60;36.80;;;34.53;27.45;95131.56;5063362;28;20314;-55
2022/05/17 09:03:35;;;;;;;12.88;3.33;;;33.70;36.50;;;34.57;25.87;95126.38;5065536;28;20215;-58
2022/05/17 09:06:08;;;;;;;10.40;2.80;;;33.80;34.50;;;34.54;26.91;95118.75;5064985;28;21171;-56
2022/05/17 09:08:41;;;;;;;5.03;2.33;;;33.80;35.50;;;34.59;26.53;95114.03;5066127;28;20220;-56
2022/05/17 09:11:18;;;;;;;15.70;3.45;;;33.90;35.30;;;34.66;26.30;95102.78;5066160;28;20220;-55
2022/05/17 09:13:52;;;;;;;3.67;2.80;;;33.90;34.60;;;34.73;25.57;95107.91;5064533;28;20688;-54
2022/05/17 09:16:21;;;;;;;10.35;3.25;;;34.00;34.40;;;34.71;26.48;95110.94;5065825;28;20230;-56
2022/05/17 09:18:49;;;;;;;6.68;2.97;;;34.00;34.20;;;34.69;25.53;95115.03;5065900;28;20208;-56
2022/05/17 09:21:29;;;;;;;9.48;3.38;;;34.00;34.00;;;34.60;25.98;95117.59;5065893;28;20226;-55
2022/05/17 09:23:59;;;;;;;4.07;2.75;;;34.00;33.70;;;34.58;26.12;95114.31;5065357;28;20236;-55
2022/05/17 09:26:26;;;;;;;3.05;2.78;;;33.80;33.80;;;34.65;25.72;95104.69;5063793;28;20580;-55
2022/05/17 09:28:59;;;;;;;17.05;3.30;;;33.90;33.70;;;34.68;25.27;95094.31;5066131;28;20208;-57
2022/05/17 09:31:31;;;;;;;3.40;2.80;;;34.00;32.90;;;34.50;25.75;95099.34;5065598;28;20224;-55
2022/05/17 09:34:00;;;;;;;4.28;3.00;;;33.80;33.00;;;34.47;26.35;95094.47;5065858;28;20236;-55
2022/05/17 09:36:32;;;;;;;3.28;1.85;;;33.80;33.80;;;34.58;25.91;95085.09;5063698;28;20243;-55
2022/05/17 09:39:01;;;;;;;2.80;2.50;;;33.80;34.10;;;34.74;25.17;95090.44;5062204;28;20199;-56
2022/05/17 09:41:34;;;;;;;4.70;2.10;;;33.90;33.50;;;34.85;24.92;95086.50;5065515;28;20223;-57
2022/05/17 09:44:05;;;;;;;3.20;1.70;;;34.00;32.70;;;34.93;24.35;95082.34;5065159;28;20208;-54
2022/05/17 09:46:33;;;;;;;2.55;1.70;;;34.20;32.30;;;34.94;24.27;95075.78;5066439;28;20235;-54
2022/05/17 09:54:42;;;;;;;6.43;2.15;;;34.20;30.10;;;34.58;24.08;95062.41;5062953;28;20711;-55
2022/05/17 09:57:15;;;;;;;4.50;1.83;;;34.00;30.30;;;34.50;23.27;95063.84;5065368;28;20272;-56
2022/05/17 09:59:44;;;;;;;10.23;2.47;;;33.80;30.00;;;34.52;23.80;95064.41;5065324;28;20625;-55
2022/05/17 10:02:39;;;;;;;4.85;2.13;;;33.80;30.80;;;34.50;23.05;95065.78;5065093;28;20220;-54
2022/05/17 10:05:21;;;;;;;4.47;1.95;;;33.80;29.90;;;34.51;22.68;95056.47;5063131;28;20220;-55
2022/05/17 10:07:55;;;;;;;7.22;2.40;;;33.70;29.80;;;34.55;23.66;95052.91;5065205;28;20712;-56
2022/05/17 10:10:35;;;;;;;2.55;2.00;;;33.80;30.00;;;34.63;22.36;95054.19;5064583;28;20238;-54
2022/05/17 10:13:18;;;;;;;2.80;2.08;;;33.80;29.70;;;34.72;22.19;95046.16;5065246;28;20215;-55
2022/05/17 10:15:48;;;;;;;3.17;2.05;;;33.90;29.90;;;34.73;23.07;95043.13;5063939;28;20659;-57
2022/05/17 10:18:39;;;;;;;3.03;2.13;;;34.00;29.70;;;34.73;22.48;95047.78;5064828;28;20200;-54
2022/05/17 10:21:12;;;;;;;6.50;2.78;;;34.00;29.60;;;34.72;22.76;95035.22;5064587;28;20227;-57
2022/05/17 10:23:45;;;;;;;2.33;2.15;;;34.00;30.00;;;34.73;22.90;95037.66;5062176;28;20206;-55
2022/05/17 10:26:14;;;;;;;3.90;2.50;;;34.00;29.90;;;34.74;23.19;95028.38;5063862;28;20319;-55
2022/05/17 10:28:48;;;;;;;4.20;2.13;;;34.00;29.60;;;34.76;23.04;95031.66;5065400;28;20208;-54
2022/05/17 10:31:21;;;;;;;2.70;2.40;;;34.00;30.00;;;34.69;23.29;95033.06;5062818;28;20220;-55
2022/05/17 10:34:08;;;;;;;2.45;1.67;;;34.00;29.80;;;34.54;23.54;95029.41;5065206;28;20635;-57
2022/05/17 10:36:41;;;;;;;2.90;1.70;;;33.90;30.00;;;34.50;23.38;95022.06;5062822;28;20231;-55
2022/05/17 10:39:21;;;;;;;2.13;2.03;;;33.80;30.20;;;34.39;22.53;95026.81;5064906;28;20223;-54
2022/05/17 10:41:49;;;;;;;3.80;2.13;;;33.70;29.50;;;34.26;23.33;95012.72;5064337;28;20548;-55